sensor_id;sensor_type;location;lat;lon;timestamp;temperature;humidity
51011;DHT22;37038;50.182;8.624;2023-04-01T00:01:51;10.10;99.90
51011;DHT22;37038;50.182;8.624;2023-04-01T00:04:39;10.10;99.90
51011;DHT22;37038;50.182;8.624;2023-04-01T00:07:27;10.20;99.90
51011;DHT22;37038;50.182;8.624;2023-04-01T00:10:17;10.20;99.90
51011;DHT22;37038;50.182;8.624;2023-04-01T00:13:05;10.10;99.90
51011;DHT22;37038;50.182;8.624;2023-04-01T00:15:54;10.10;99.90
51011;DHT22;37038;50.182;8.624;2023-04-01T00:18:43;10.10;99.90
51011;DHT22;37038;50.182;8.624;2023-04-01T00:21:32;10.10;99.90
51011;DHT22;37038;50.182;8.624;2023-04-01T00:24:20;10.10;99.90
51011;DHT22;37038;50.182;8.624;2023-04-01T00:27:07;10.10;99.90
51011;DHT22;37038;50.182;8.624;2023-04-01T00:29:55;10.10;99.90
51011;DHT22;37038;50.182;8.624;2023-04-01T00:32:43;10.10;99.90
51011;DHT22;37038;50.182;8.624;2023-04-01T00:35:31;10.10;99.90
51011;DHT22;37038;50.182;8.624;2023-04-01T00:38:20;10.20;99.90
51011;DHT22;37038;50.182;8.624;2023-04-01T00:41:08;10.20;99.90
51011;DHT22;37038;50.182;8.624;2023-04-01T00:44:21;10.20;99.90
51011;DHT22;37038;50.182;8.624;2023-04-01T00:47:09;10.30;99.90
51011;DHT22;37038;50.182;8.624;2023-04-01T00:49:57;10.30;99.90
51011;DHT22;37038;50.182;8.624;2023-04-01T00:52:45;10.30;99.90
51011;DHT22;37038;50.182;8.624;2023-04-01T00:55:35;10.30;99.90
51011;DHT22;37038;50.182;8.624;2023-04-01T00:58:28;10.40;99.90
51011;DHT22;37038;50.182;8.624;2023-04-01T01:01:17;10.30;99.90
51011;DHT22;37038;50.182;8.624;2023-04-01T01:04:04;10.30;99.90
51011;DHT22;37038;50.182;8.624;2023-04-01T01:07:18;10.30;99.90
51011;DHT22;37038;50.182;8.624;2023-04-01T01:13:11;10.30;99.90
51011;DHT22;37038;50.182;8.624;2023-04-01T01:16:08;10.30;99.90
51011;DHT22;37038;50.182;8.624;2023-04-01T01:27:39;10.20;99.90
51011;DHT22;37038;50.182;8.624;2023-04-01T01:34:14;10.10;99.90
51011;DHT22;37038;50.182;8.624;2023-04-01T01:37:07;10.10;99.90
51011;DHT22;37038;50.182;8.624;2023-04-01T01:40:00;10.10;99.90
51011;DHT22;37038;50.182;8.624;2023-04-01T01:42:53;10.00;99.90
51011;DHT22;37038;50.182;8.624;2023-04-01T01:45:48;10.00;99.90
51011;DHT22;37038;50.182;8.624;2023-04-01T01:48:41;10.10;99.90
51011;DHT22;37038;50.182;8.624;2023-04-01T01:51:30;10.20;99.90
51011;DHT22;37038;50.182;8.624;2023-04-01T01:54:18;10.10;99.90
51011;DHT22;37038;50.182;8.624;2023-04-01T01:57:09;10.20;99.90
51011;DHT22;37038;50.182;8.624;2023-04-01T02:00:04;10.30;99.90
51011;DHT22;37038;50.182;8.624;2023-04-01T02:02:58;10.20;99.90
51011;DHT22;37038;50.182;8.624;2023-04-01T02:05:47;10.20;99.90
51011;DHT22;37038;50.182;8.624;2023-04-01T02:08:49;10.20;99.90
51011;DHT22;37038;50.182;8.624;2023-04-01T02:11:41;10.30;99.90
51011;DHT22;37038;50.182;8.624;2023-04-01T02:14:44;10.20;99.90
51011;DHT22;37038;50.182;8.624;2023-04-01T02:17:34;10.20;99.90
51011;DHT22;37038;50.182;8.624;2023-04-01T02:20:25;10.20;99.90
51011;DHT22;37038;50.182;8.624;2023-04-01T02:23:14;10.20;99.90
51011;DHT22;37038;50.182;8.624;2023-04-01T02:26:05;10.20;99.90
51011;DHT22;37038;50.182;8.624;2023-04-01T02:28:55;10.10;99.90
51011;DHT22;37038;50.182;8.624;2023-04-01T02:31:44;10.00;99.90
51011;DHT22;37038;50.182;8.624;2023-04-01T02:34:32;10.00;99.90
51011;DHT22;37038;50.182;8.624;2023-04-01T02:37:21;10.00;99.90
51011;DHT22;37038;50.182;8.624;2023-04-01T02:40:13;10.00;99.90
51011;DHT22;37038;50.182;8.624;2023-04-01T02:43:01;10.00;99.90
51011;DHT22;37038;50.182;8.624;2023-04-01T02:45:49;10.00;99.90
51011;DHT22;37038;50.182;8.624;2023-04-01T02:48:36;10.00;99.90
51011;DHT22;37038;50.182;8.624;2023-04-01T02:51:25;9.90;99.90
51011;DHT22;37038;50.182;8.624;2023-04-01T02:54:13;9.90;99.90
51011;DHT22;37038;50.182;8.624;2023-04-01T02:57:01;9.90;99.90
51011;DHT22;37038;50.182;8.624;2023-04-01T02:59:48;9.90;99.90
51011;DHT22;37038;50.182;8.624;2023-04-01T03:02:37;9.80;99.90
51011;DHT22;37038;50.182;8.624;2023-04-01T03:05:24;9.70;99.90
51011;DHT22;37038;50.182;8.624;2023-04-01T03:08:12;9.70;99.90
51011;DHT22;37038;50.182;8.624;2023-04-01T03:11:00;9.60;99.90
51011;DHT22;37038;50.182;8.624;2023-04-01T03:13:47;9.60;99.90
51011;DHT22;37038;50.182;8.624;2023-04-01T03:16:36;9.60;99.90
51011;DHT22;37038;50.182;8.624;2023-04-01T03:19:23;9.50;99.90
51011;DHT22;37038;50.182;8.624;2023-04-01T03:22:11;9.50;99.90
51011;DHT22;37038;50.182;8.624;2023-04-01T03:24:59;9.50;99.90
51011;DHT22;37038;50.182;8.624;2023-04-01T03:27:46;9.40;99.90
51011;DHT22;37038;50.182;8.624;2023-04-01T03:30:34;9.40;99.90
51011;DHT22;37038;50.182;8.624;2023-04-01T03:33:21;9.40;99.90
51011;DHT22;37038;50.182;8.624;2023-04-01T03:36:09;9.30;99.90
51011;DHT22;37038;50.182;8.624;2023-04-01T03:38:58;9.30;99.90
51011;DHT22;37038;50.182;8.624;2023-04-01T03:41:46;9.30;99.90
51011;DHT22;37038;50.182;8.624;2023-04-01T03:44:34;9.40;99.90
51011;DHT22;37038;50.182;8.624;2023-04-01T03:47:21;9.40;99.90
51011;DHT22;37038;50.182;8.624;2023-04-01T03:50:09;9.40;99.90
51011;DHT22;37038;50.182;8.624;2023-04-01T03:52:57;9.40;99.90
51011;DHT22;37038;50.182;8.624;2023-04-01T03:55:44;9.40;99.90
51011;DHT22;37038;50.182;8.624;2023-04-01T03:58:32;9.50;99.90
51011;DHT22;37038;50.182;8.624;2023-04-01T04:01:21;9.50;99.90
51011;DHT22;37038;50.182;8.624;2023-04-01T04:04:12;9.50;99.90
51011;DHT22;37038;50.182;8.624;2023-04-01T04:07:02;9.50;99.90
51011;DHT22;37038;50.182;8.624;2023-04-01T04:09:50;9.60;99.90
51011;DHT22;37038;50.182;8.624;2023-04-01T04:12:37;9.60;99.90
51011;DHT22;37038;50.182;8.624;2023-04-01T04:15:25;9.60;99.90
51011;DHT22;37038;50.182;8.624;2023-04-01T04:18:12;9.50;99.90
51011;DHT22;37038;50.182;8.624;2023-04-01T04:21:00;9.50;99.90
51011;DHT22;37038;50.182;8.624;2023-04-01T04:23:47;9.40;99.90
51011;DHT22;37038;50.182;8.624;2023-04-01T04:26:35;9.30;99.90
51011;DHT22;37038;50.182;8.624;2023-04-01T04:29:23;9.20;99.90
51011;DHT22;37038;50.182;8.624;2023-04-01T04:32:10;9.20;99.90
51011;DHT22;37038;50.182;8.624;2023-04-01T04:34:58;9.20;99.90
51011;DHT22;37038;50.182;8.624;2023-04-01T04:37:45;9.10;99.90
51011;DHT22;37038;50.182;8.624;2023-04-01T04:40:33;9.10;99.90
51011;DHT22;37038;50.182;8.624;2023-04-01T04:43:22;9.20;99.90
51011;DHT22;37038;50.182;8.624;2023-04-01T04:46:10;9.20;99.90
51011;DHT22;37038;50.182;8.624;2023-04-01T04:48:58;9.20;99.90
51011;DHT22;37038;50.182;8.624;2023-04-01T04:51:45;9.10;99.90
51011;DHT22;37038;50.182;8.624;2023-04-01T04:54:33;9.30;99.90
51011;DHT22;37038;50.182;8.624;2023-04-01T04:57:21;9.30;99.90
51011;DHT22;37038;50.182;8.624;2023-04-01T05:00:09;9.30;99.90
51011;DHT22;37038;50.182;8.624;2023-04-01T05:02:57;9.30;99.90
51011;DHT22;37038;50.182;8.624;2023-04-01T05:05:49;9.40;99.90
51011;DHT22;37038;50.182;8.624;2023-04-01T05:08:38;9.30;99.90
51011;DHT22;37038;50.182;8.624;2023-04-01T05:11:29;9.30;99.90
51011;DHT22;37038;50.182;8.624;2023-04-01T05:14:17;9.20;99.90
51011;DHT22;37038;50.182;8.624;2023-04-01T05:17:12;9.20;99.90
51011;DHT22;37038;50.182;8.624;2023-04-01T05:20:00;9.20;99.90
51011;DHT22;37038;50.182;8.624;2023-04-01T05:22:48;9.10;99.90
51011;DHT22;37038;50.182;8.624;2023-04-01T05:25:38;9.10;99.90
51011;DHT22;37038;50.182;8.624;2023-04-01T05:28:25;9.20;99.90
51011;DHT22;37038;50.182;8.624;2023-04-01T05:31:13;9.20;99.90
51011;DHT22;37038;50.182;8.624;2023-04-01T05:34:00;9.10;99.90
51011;DHT22;37038;50.182;8.624;2023-04-01T05:36:48;9.20;99.90
51011;DHT22;37038;50.182;8.624;2023-04-01T05:39:37;9.20;99.90
51011;DHT22;37038;50.182;8.624;2023-04-01T05:42:25;9.10;99.90
51011;DHT22;37038;50.182;8.624;2023-04-01T05:45:12;9.10;99.90
51011;DHT22;37038;50.182;8.624;2023-04-01T05:48:02;9.10;99.90
51011;DHT22;37038;50.182;8.624;2023-04-01T05:50:50;9.00;99.90
51011;DHT22;37038;50.182;8.624;2023-04-01T05:53:41;9.10;99.90
51011;DHT22;37038;50.182;8.624;2023-04-01T05:56:41;9.10;99.90
51011;DHT22;37038;50.182;8.624;2023-04-01T05:59:46;9.10;99.90
51011;DHT22;37038;50.182;8.624;2023-04-01T06:09:18;9.00;99.90
51011;DHT22;37038;50.182;8.624;2023-04-01T06:18:57;8.90;99.90
51011;DHT22;37038;50.182;8.624;2023-04-01T06:22:06;8.90;99.90
51011;DHT22;37038;50.182;8.624;2023-04-01T06:31:40;9.10;99.90
51011;DHT22;37038;50.182;8.624;2023-04-01T06:41:21;9.10;99.90
51011;DHT22;37038;50.182;8.624;2023-04-01T06:54:03;9.20;99.90
51011;DHT22;37038;50.182;8.624;2023-04-01T06:56:58;9.20;99.90
51011;DHT22;37038;50.182;8.624;2023-04-01T06:59:48;9.20;99.90
51011;DHT22;37038;50.182;8.624;2023-04-01T07:02:43;9.20;99.90
51011;DHT22;37038;50.182;8.624;2023-04-01T07:05:42;9.20;99.90
51011;DHT22;37038;50.182;8.624;2023-04-01T07:08:33;9.30;99.90
51011;DHT22;37038;50.182;8.624;2023-04-01T07:11:29;9.20;99.90
51011;DHT22;37038;50.182;8.624;2023-04-01T07:14:25;9.10;99.90
51011;DHT22;37038;50.182;8.624;2023-04-01T07:17:27;9.10;99.90
51011;DHT22;37038;50.182;8.624;2023-04-01T07:23:24;9.10;99.90
51011;DHT22;37038;50.182;8.624;2023-04-01T07:26:22;9.00;99.90
51011;DHT22;37038;50.182;8.624;2023-04-01T07:29:12;9.20;99.90
51011;DHT22;37038;50.182;8.624;2023-04-01T07:35:21;9.50;99.90
51011;DHT22;37038;50.182;8.624;2023-04-01T07:38:35;9.70;99.90
51011;DHT22;37038;50.182;8.624;2023-04-01T07:47:54;9.90;99.90
51011;DHT22;37038;50.182;8.624;2023-04-01T07:51:07;10.00;99.90
51011;DHT22;37038;50.182;8.624;2023-04-01T07:57:49;10.00;99.90
51011;DHT22;37038;50.182;8.624;2023-04-01T08:00:28;10.00;99.90
51011;DHT22;37038;50.182;8.624;2023-04-01T08:03:31;10.10;99.90
51011;DHT22;37038;50.182;8.624;2023-04-01T08:06:43;10.00;99.90
51011;DHT22;37038;50.182;8.624;2023-04-01T08:10:08;10.10;99.90
51011;DHT22;37038;50.182;8.624;2023-04-01T08:13:31;10.20;99.90
51011;DHT22;37038;50.182;8.624;2023-04-01T08:19:49;10.20;99.90
51011;DHT22;37038;50.182;8.624;2023-04-01T08:26:13;10.20;99.90
51011;DHT22;37038;50.182;8.624;2023-04-01T08:29:18;10.10;99.90
51011;DHT22;37038;50.182;8.624;2023-04-01T08:32:16;10.10;99.90
51011;DHT22;37038;50.182;8.624;2023-04-01T08:35:26;10.20;99.90
51011;DHT22;37038;50.182;8.624;2023-04-01T08:38:38;10.40;99.90
51011;DHT22;37038;50.182;8.624;2023-04-01T08:54:38;10.80;99.90
51011;DHT22;37038;50.182;8.624;2023-04-01T09:01:03;10.60;99.90
51011;DHT22;37038;50.182;8.624;2023-04-01T09:04:17;10.50;99.90
51011;DHT22;37038;50.182;8.624;2023-04-01T09:07:22;10.70;99.90
51011;DHT22;37038;50.182;8.624;2023-04-01T09:10:56;10.50;99.90
51011;DHT22;37038;50.182;8.624;2023-04-01T09:20:14;10.60;99.90
51011;DHT22;37038;50.182;8.624;2023-04-01T09:36:03;10.80;99.90
51011;DHT22;37038;50.182;8.624;2023-04-01T09:38:59;10.70;99.90
51011;DHT22;37038;50.182;8.624;2023-04-01T09:44:58;11.10;99.90
51011;DHT22;37038;50.182;8.624;2023-04-01T09:48:05;11.20;99.90
51011;DHT22;37038;50.182;8.624;2023-04-01T10:23:20;10.60;99.90
51011;DHT22;37038;50.182;8.624;2023-04-01T10:26:28;10.60;99.90
51011;DHT22;37038;50.182;8.624;2023-04-01T10:30:04;10.60;99.90
51011;DHT22;37038;50.182;8.624;2023-04-01T10:45:55;10.80;99.90
51011;DHT22;37038;50.182;8.624;2023-04-01T10:48:53;10.80;99.90
51011;DHT22;37038;50.182;8.624;2023-04-01T11:01:27;10.90;99.90
51011;DHT22;37038;50.182;8.624;2023-04-01T11:20:36;11.00;99.90
51011;DHT22;37038;50.182;8.624;2023-04-01T11:29:59;11.10;99.90
51011;DHT22;37038;50.182;8.624;2023-04-01T11:42:19;11.10;99.90
51011;DHT22;37038;50.182;8.624;2023-04-01T11:54:39;11.70;99.90
51011;DHT22;37038;50.182;8.624;2023-04-01T11:57:35;11.90;99.90
51011;DHT22;37038;50.182;8.624;2023-04-01T12:07:13;11.90;99.90
51011;DHT22;37038;50.182;8.624;2023-04-01T12:10:33;11.90;99.90
51011;DHT22;37038;50.182;8.624;2023-04-01T12:16:40;12.10;99.90
51011;DHT22;37038;50.182;8.624;2023-04-01T12:19:50;12.00;99.90
51011;DHT22;37038;50.182;8.624;2023-04-01T12:28:48;11.70;99.90
51011;DHT22;37038;50.182;8.624;2023-04-01T12:47:47;11.00;99.90
51011;DHT22;37038;50.182;8.624;2023-04-01T12:53:55;11.60;99.90
51011;DHT22;37038;50.182;8.624;2023-04-01T13:06:37;11.20;99.90
51011;DHT22;37038;50.182;8.624;2023-04-01T13:12:55;11.40;99.90
51011;DHT22;37038;50.182;8.624;2023-04-01T13:16:02;11.60;99.90
51011;DHT22;37038;50.182;8.624;2023-04-01T13:19:05;12.10;99.90
51011;DHT22;37038;50.182;8.624;2023-04-01T13:22:18;12.30;99.90
51011;DHT22;37038;50.182;8.624;2023-04-01T13:25:26;12.20;99.90
51011;DHT22;37038;50.182;8.624;2023-04-01T13:31:25;12.50;99.90
51011;DHT22;37038;50.182;8.624;2023-04-01T13:59:59;12.60;99.90
51011;DHT22;37038;50.182;8.624;2023-04-01T14:06:49;12.50;99.90
51011;DHT22;37038;50.182;8.624;2023-04-01T14:10:02;12.40;99.90
51011;DHT22;37038;50.182;8.624;2023-04-01T14:13:07;12.00;99.90
51011;DHT22;37038;50.182;8.624;2023-04-01T14:22:40;11.80;99.90
51011;DHT22;37038;50.182;8.624;2023-04-01T14:42:17;11.90;99.90
51011;DHT22;37038;50.182;8.624;2023-04-01T14:51:23;12.10;99.90
51011;DHT22;37038;50.182;8.624;2023-04-01T14:54:32;12.10;99.90
51011;DHT22;37038;50.182;8.624;2023-04-01T14:57:30;11.90;99.90
51011;DHT22;37038;50.182;8.624;2023-04-01T15:00:18;11.70;99.90
51011;DHT22;37038;50.182;8.624;2023-04-01T15:03:19;11.50;99.90
51011;DHT22;37038;50.182;8.624;2023-04-01T15:09:40;11.60;99.90
51011;DHT22;37038;50.182;8.624;2023-04-01T15:18:56;12.20;99.90
51011;DHT22;37038;50.182;8.624;2023-04-01T15:28:06;12.00;99.90
51011;DHT22;37038;50.182;8.624;2023-04-01T15:31:32;11.80;99.90
51011;DHT22;37038;50.182;8.624;2023-04-01T15:37:56;11.70;99.90
51011;DHT22;37038;50.182;8.624;2023-04-01T15:43:47;11.70;99.90
51011;DHT22;37038;50.182;8.624;2023-04-01T15:46:50;11.60;99.90
51011;DHT22;37038;50.182;8.624;2023-04-01T15:49:46;11.60;99.90
51011;DHT22;37038;50.182;8.624;2023-04-01T16:01:53;11.60;99.90
51011;DHT22;37038;50.182;8.624;2023-04-01T16:17:13;11.70;99.90
51011;DHT22;37038;50.182;8.624;2023-04-01T16:20:19;11.60;99.90
51011;DHT22;37038;50.182;8.624;2023-04-01T16:26:37;11.80;99.90
51011;DHT22;37038;50.182;8.624;2023-04-01T16:29:33;11.80;99.90
51011;DHT22;37038;50.182;8.624;2023-04-01T16:38:40;12.70;99.90
51011;DHT22;37038;50.182;8.624;2023-04-01T16:41:35;12.70;99.90
51011;DHT22;37038;50.182;8.624;2023-04-01T16:44:26;13.10;99.90
51011;DHT22;37038;50.182;8.624;2023-04-01T16:47:19;12.70;99.90
51011;DHT22;37038;50.182;8.624;2023-04-01T16:50:30;12.20;99.90
51011;DHT22;37038;50.182;8.624;2023-04-01T16:53:48;12.00;99.90
51011;DHT22;37038;50.182;8.624;2023-04-01T16:57:11;11.80;99.90
51011;DHT22;37038;50.182;8.624;2023-04-01T16:59:56;11.70;99.90
51011;DHT22;37038;50.182;8.624;2023-04-01T17:03:03;11.60;99.90
51011;DHT22;37038;50.182;8.624;2023-04-01T17:08:58;11.30;99.90
51011;DHT22;37038;50.182;8.624;2023-04-01T17:12:10;11.30;99.90
51011;DHT22;37038;50.182;8.624;2023-04-01T17:37:34;11.10;99.90
51011;DHT22;37038;50.182;8.624;2023-04-01T17:52:52;10.80;99.90
51011;DHT22;37038;50.182;8.624;2023-04-01T17:56:02;10.80;99.90
51011;DHT22;37038;50.182;8.624;2023-04-01T18:02:27;10.90;99.90
51011;DHT22;37038;50.182;8.624;2023-04-01T18:08:31;10.80;99.90
51011;DHT22;37038;50.182;8.624;2023-04-01T18:17:40;10.70;99.90
51011;DHT22;37038;50.182;8.624;2023-04-01T18:20:37;10.70;99.90
51011;DHT22;37038;50.182;8.624;2023-04-01T18:23:38;10.70;99.90
51011;DHT22;37038;50.182;8.624;2023-04-01T18:26:39;10.70;99.90
51011;DHT22;37038;50.182;8.624;2023-04-01T18:35:47;10.50;99.90
51011;DHT22;37038;50.182;8.624;2023-04-01T18:38:38;10.50;99.90
51011;DHT22;37038;50.182;8.624;2023-04-01T18:41:34;10.50;99.90
51011;DHT22;37038;50.182;8.624;2023-04-01T18:53:30;10.30;99.90
51011;DHT22;37038;50.182;8.624;2023-04-01T18:56:39;10.40;99.90
51011;DHT22;37038;50.182;8.624;2023-04-01T18:59:52;10.40;99.90
51011;DHT22;37038;50.182;8.624;2023-04-01T19:02:50;10.40;99.90
51011;DHT22;37038;50.182;8.624;2023-04-01T19:05:45;10.40;99.90
51011;DHT22;37038;50.182;8.624;2023-04-01T19:08:35;10.40;99.90
51011;DHT22;37038;50.182;8.624;2023-04-01T19:11:36;10.30;99.90
51011;DHT22;37038;50.182;8.624;2023-04-01T19:20:38;10.30;99.90
51011;DHT22;37038;50.182;8.624;2023-04-01T19:29:50;10.30;99.90
51011;DHT22;37038;50.182;8.624;2023-04-01T19:35:47;10.40;99.90
51011;DHT22;37038;50.182;8.624;2023-04-01T19:38:41;10.40;99.90
51011;DHT22;37038;50.182;8.624;2023-04-01T19:41:49;10.30;99.90
51011;DHT22;37038;50.182;8.624;2023-04-01T19:48:22;10.20;99.90
51011;DHT22;37038;50.182;8.624;2023-04-01T19:58:36;10.20;99.90
51011;DHT22;37038;50.182;8.624;2023-04-01T20:01:36;10.10;99.90
51011;DHT22;37038;50.182;8.624;2023-04-01T20:04:42;10.20;99.90
51011;DHT22;37038;50.182;8.624;2023-04-01T20:07:44;10.20;99.90
51011;DHT22;37038;50.182;8.624;2023-04-01T20:10:41;10.10;99.90
51011;DHT22;37038;50.182;8.624;2023-04-01T20:16:54;10.10;99.90
51011;DHT22;37038;50.182;8.624;2023-04-01T20:19:48;10.00;99.90
51011;DHT22;37038;50.182;8.624;2023-04-01T20:26:12;10.00;99.90
51011;DHT22;37038;50.182;8.624;2023-04-01T20:35:37;9.70;99.90
51011;DHT22;37038;50.182;8.624;2023-04-01T20:48:30;9.60;99.90
51011;DHT22;37038;50.182;8.624;2023-04-01T20:51:37;9.60;99.90
51011;DHT22;37038;50.182;8.624;2023-04-01T20:54:47;9.60;99.90
51011;DHT22;37038;50.182;8.624;2023-04-01T21:01:19;9.60;99.90
51011;DHT22;37038;50.182;8.624;2023-04-01T21:07:49;9.60;99.90
51011;DHT22;37038;50.182;8.624;2023-04-01T21:14:01;9.50;99.90
51011;DHT22;37038;50.182;8.624;2023-04-01T21:23:19;9.50;99.90
51011;DHT22;37038;50.182;8.624;2023-04-01T21:26:23;9.40;99.90
51011;DHT22;37038;50.182;8.624;2023-04-01T21:33:00;9.40;99.90
51011;DHT22;37038;50.182;8.624;2023-04-01T21:35:54;9.30;99.90
51011;DHT22;37038;50.182;8.624;2023-04-01T21:42:02;9.20;99.90
51011;DHT22;37038;50.182;8.624;2023-04-01T21:47:46;9.40;99.90
51011;DHT22;37038;50.182;8.624;2023-04-01T21:51:12;9.30;99.90
51011;DHT22;37038;50.182;8.624;2023-04-01T21:54:34;9.30;99.90
51011;DHT22;37038;50.182;8.624;2023-04-01T22:00:37;9.40;99.90
51011;DHT22;37038;50.182;8.624;2023-04-01T22:06:38;9.30;99.90
51011;DHT22;37038;50.182;8.624;2023-04-01T22:12:45;9.40;99.90
51011;DHT22;37038;50.182;8.624;2023-04-01T22:19:15;9.50;99.90
51011;DHT22;37038;50.182;8.624;2023-04-01T22:25:25;9.60;99.90
51011;DHT22;37038;50.182;8.624;2023-04-01T22:28:21;9.50;99.90
51011;DHT22;37038;50.182;8.624;2023-04-01T22:31:14;9.60;99.90
51011;DHT22;37038;50.182;8.624;2023-04-01T22:40:39;9.80;99.90
51011;DHT22;37038;50.182;8.624;2023-04-01T22:43:40;10.00;99.90
51011;DHT22;37038;50.182;8.624;2023-04-01T22:49:57;10.30;99.90
51011;DHT22;37038;50.182;8.624;2023-04-01T22:52:47;10.40;99.90
51011;DHT22;37038;50.182;8.624;2023-04-01T22:55:40;10.20;99.90
51011;DHT22;37038;50.182;8.624;2023-04-01T23:01:57;9.80;99.90
51011;DHT22;37038;50.182;8.624;2023-04-01T23:04:54;9.70;99.90
51011;DHT22;37038;50.182;8.624;2023-04-01T23:11:33;9.80;99.90
51011;DHT22;37038;50.182;8.624;2023-04-01T23:29:49;9.40;99.90
51011;DHT22;37038;50.182;8.624;2023-04-01T23:32:36;9.40;99.90
51011;DHT22;37038;50.182;8.624;2023-04-01T23:35:24;9.30;99.90
51011;DHT22;37038;50.182;8.624;2023-04-01T23:38:12;9.30;99.90
51011;DHT22;37038;50.182;8.624;2023-04-01T23:41:01;9.40;99.90
51011;DHT22;37038;50.182;8.624;2023-04-01T23:44:04;9.40;99.90
51011;DHT22;37038;50.182;8.624;2023-04-01T23:46:54;9.40;99.90
51011;DHT22;37038;50.182;8.624;2023-04-01T23:49:46;9.30;99.90
51011;DHT22;37038;50.182;8.624;2023-04-01T23:52:41;9.30;99.90
51011;DHT22;37038;50.182;8.624;2023-04-01T23:55:32;9.30;99.90
51011;DHT22;37038;50.182;8.624;2023-04-01T23:58:40;9.30;99.90
